sensor_id;sensor_type;location;lat;lon;timestamp;P1;durP1;ratioP1;P2;durP2;ratioP2
7306;SDS011;3694;48.732;9.248;2023-08-12T00:01:47;5.37;;;4.10;;
7306;SDS011;3694;48.732;9.248;2023-08-12T00:04:13;9.23;;;4.47;;
7306;SDS011;3694;48.732;9.248;2023-08-12T00:06:40;4.17;;;3.77;;
7306;SDS011;3694;48.732;9.248;2023-08-12T00:09:08;4.20;;;3.80;;
7306;SDS011;3694;48.732;9.248;2023-08-12T00:11:36;4.93;;;4.27;;
7306;SDS011;3694;48.732;9.248;2023-08-12T00:14:02;3.53;;;3.23;;
7306;SDS011;3694;48.732;9.248;2023-08-12T00:16:28;4.33;;;3.93;;
7306;SDS011;3694;48.732;9.248;2023-08-12T00:18:54;4.97;;;3.60;;
7306;SDS011;3694;48.732;9.248;2023-08-12T00:21:19;5.70;;;3.80;;
7306;SDS011;3694;48.732;9.248;2023-08-12T00:23:45;4.10;;;3.67;;
7306;SDS011;3694;48.732;9.248;2023-08-12T00:26:12;4.07;;;3.70;;
7306;SDS011;3694;48.732;9.248;2023-08-12T00:28:38;4.17;;;3.77;;
7306;SDS011;3694;48.732;9.248;2023-08-12T00:31:03;4.00;;;3.60;;
7306;SDS011;3694;48.732;9.248;2023-08-12T00:33:29;3.80;;;3.40;;
7306;SDS011;3694;48.732;9.248;2023-08-12T00:35:54;3.80;;;3.50;;
7306;SDS011;3694;48.732;9.248;2023-08-12T00:41:28;4.90;;;4.30;;
7306;SDS011;3694;48.732;9.248;2023-08-12T00:43:54;4.73;;;3.60;;
7306;SDS011;3694;48.732;9.248;2023-08-12T00:46:20;4.23;;;3.83;;
7306;SDS011;3694;48.732;9.248;2023-08-12T00:48:46;4.77;;;4.27;;
7306;SDS011;3694;48.732;9.248;2023-08-12T00:51:16;4.77;;;4.37;;
7306;SDS011;3694;48.732;9.248;2023-08-12T00:53:42;5.30;;;4.17;;
7306;SDS011;3694;48.732;9.248;2023-08-12T00:56:10;5.30;;;4.80;;
7306;SDS011;3694;48.732;9.248;2023-08-12T00:58:35;5.57;;;5.07;;
7306;SDS011;3694;48.732;9.248;2023-08-12T01:01:01;5.40;;;4.90;;
7306;SDS011;3694;48.732;9.248;2023-08-12T01:03:26;5.83;;;4.80;;
7306;SDS011;3694;48.732;9.248;2023-08-12T01:05:52;5.30;;;4.80;;
7306;SDS011;3694;48.732;9.248;2023-08-12T01:08:18;5.20;;;4.70;;
7306;SDS011;3694;48.732;9.248;2023-08-12T01:10:45;4.90;;;4.50;;
7306;SDS011;3694;48.732;9.248;2023-08-12T01:15:57;5.33;;;4.40;;
7306;SDS011;3694;48.732;9.248;2023-08-12T01:18:26;5.40;;;4.90;;
7306;SDS011;3694;48.732;9.248;2023-08-12T01:20:52;5.57;;;4.63;;
7306;SDS011;3694;48.732;9.248;2023-08-12T01:23:18;5.13;;;4.63;;
7306;SDS011;3694;48.732;9.248;2023-08-12T01:25:45;7.00;;;5.30;;
7306;SDS011;3694;48.732;9.248;2023-08-12T01:28:11;5.03;;;4.53;;
7306;SDS011;3694;48.732;9.248;2023-08-12T01:30:39;5.30;;;4.73;;
7306;SDS011;3694;48.732;9.248;2023-08-12T01:36:25;5.07;;;4.57;;
7306;SDS011;3694;48.732;9.248;2023-08-12T01:38:54;5.33;;;4.83;;
7306;SDS011;3694;48.732;9.248;2023-08-12T01:41:22;5.43;;;4.87;;
7306;SDS011;3694;48.732;9.248;2023-08-12T01:43:48;5.43;;;4.93;;
7306;SDS011;3694;48.732;9.248;2023-08-12T01:46:14;4.67;;;4.27;;
7306;SDS011;3694;48.732;9.248;2023-08-12T01:48:39;5.27;;;4.40;;
7306;SDS011;3694;48.732;9.248;2023-08-12T01:51:05;4.70;;;4.30;;
7306;SDS011;3694;48.732;9.248;2023-08-12T01:53:31;4.97;;;4.57;;
7306;SDS011;3694;48.732;9.248;2023-08-12T01:55:56;5.17;;;4.67;;
7306;SDS011;3694;48.732;9.248;2023-08-12T01:58:22;5.40;;;4.90;;
7306;SDS011;3694;48.732;9.248;2023-08-12T02:00:47;5.13;;;4.63;;
7306;SDS011;3694;48.732;9.248;2023-08-12T02:06:05;7.53;;;5.07;;
7306;SDS011;3694;48.732;9.248;2023-08-12T02:08:30;5.23;;;4.73;;
7306;SDS011;3694;48.732;9.248;2023-08-12T02:10:56;6.20;;;4.87;;
7306;SDS011;3694;48.732;9.248;2023-08-12T02:13:21;5.27;;;4.73;;
7306;SDS011;3694;48.732;9.248;2023-08-12T02:15:47;5.23;;;4.73;;
7306;SDS011;3694;48.732;9.248;2023-08-12T02:18:12;6.90;;;5.47;;
7306;SDS011;3694;48.732;9.248;2023-08-12T02:20:40;5.53;;;5.00;;
7306;SDS011;3694;48.732;9.248;2023-08-12T02:23:06;5.10;;;4.60;;
7306;SDS011;3694;48.732;9.248;2023-08-12T02:25:31;6.47;;;4.83;;
7306;SDS011;3694;48.732;9.248;2023-08-12T02:27:57;5.43;;;4.93;;
7306;SDS011;3694;48.732;9.248;2023-08-12T02:30:22;7.17;;;5.30;;
7306;SDS011;3694;48.732;9.248;2023-08-12T02:32:48;6.57;;;5.00;;
7306;SDS011;3694;48.732;9.248;2023-08-12T02:35:14;6.10;;;5.50;;
7306;SDS011;3694;48.732;9.248;2023-08-12T02:37:42;5.83;;;5.23;;
7306;SDS011;3694;48.732;9.248;2023-08-12T02:40:07;6.50;;;5.30;;
7306;SDS011;3694;48.732;9.248;2023-08-12T02:42:33;5.80;;;5.20;;
7306;SDS011;3694;48.732;9.248;2023-08-12T02:44:59;5.40;;;4.90;;
7306;SDS011;3694;48.732;9.248;2023-08-12T02:47:25;5.40;;;4.90;;
7306;SDS011;3694;48.732;9.248;2023-08-12T02:49:51;5.40;;;4.43;;
7306;SDS011;3694;48.732;9.248;2023-08-12T02:52:17;5.20;;;4.37;;
7306;SDS011;3694;48.732;9.248;2023-08-12T02:54:42;5.27;;;4.47;;
7306;SDS011;3694;48.732;9.248;2023-08-12T02:57:08;4.80;;;4.40;;
7306;SDS011;3694;48.732;9.248;2023-08-12T02:59:33;5.33;;;4.83;;
7306;SDS011;3694;48.732;9.248;2023-08-12T03:01:59;6.67;;;4.97;;
7306;SDS011;3694;48.732;9.248;2023-08-12T03:04:25;4.83;;;4.43;;
7306;SDS011;3694;48.732;9.248;2023-08-12T03:06:50;4.80;;;4.40;;
7306;SDS011;3694;48.732;9.248;2023-08-12T03:09:16;6.00;;;4.43;;
7306;SDS011;3694;48.732;9.248;2023-08-12T03:11:43;5.23;;;4.80;;
7306;SDS011;3694;48.732;9.248;2023-08-12T03:14:09;6.47;;;4.83;;
7306;SDS011;3694;48.732;9.248;2023-08-12T03:16:34;4.70;;;4.23;;
7306;SDS011;3694;48.732;9.248;2023-08-12T03:19:00;5.00;;;4.27;;
7306;SDS011;3694;48.732;9.248;2023-08-12T03:21:25;4.73;;;4.30;;
7306;SDS011;3694;48.732;9.248;2023-08-12T03:23:51;4.77;;;4.37;;
7306;SDS011;3694;48.732;9.248;2023-08-12T03:26:17;5.07;;;4.57;;
7306;SDS011;3694;48.732;9.248;2023-08-12T03:28:42;5.77;;;5.17;;
7306;SDS011;3694;48.732;9.248;2023-08-12T03:31:08;5.20;;;4.70;;
7306;SDS011;3694;48.732;9.248;2023-08-12T03:33:33;4.73;;;4.33;;
7306;SDS011;3694;48.732;9.248;2023-08-12T03:35:59;4.50;;;4.10;;
7306;SDS011;3694;48.732;9.248;2023-08-12T03:38:24;4.57;;;4.17;;
7306;SDS011;3694;48.732;9.248;2023-08-12T03:40:50;4.77;;;4.33;;
7306;SDS011;3694;48.732;9.248;2023-08-12T03:43:16;4.80;;;4.40;;
7306;SDS011;3694;48.732;9.248;2023-08-12T03:45:44;5.83;;;4.40;;
7306;SDS011;3694;48.732;9.248;2023-08-12T03:48:10;4.40;;;4.03;;
7306;SDS011;3694;48.732;9.248;2023-08-12T03:50:36;4.90;;;4.30;;
7306;SDS011;3694;48.732;9.248;2023-08-12T03:53:02;5.03;;;4.57;;
7306;SDS011;3694;48.732;9.248;2023-08-12T03:55:32;4.90;;;4.33;;
7306;SDS011;3694;48.732;9.248;2023-08-12T03:57:58;4.80;;;4.20;;
7306;SDS011;3694;48.732;9.248;2023-08-12T04:00:25;4.77;;;4.27;;
7306;SDS011;3694;48.732;9.248;2023-08-12T04:02:51;4.63;;;4.23;;
7306;SDS011;3694;48.732;9.248;2023-08-12T04:05:16;4.80;;;4.27;;
7306;SDS011;3694;48.732;9.248;2023-08-12T04:07:42;4.93;;;4.43;;
7306;SDS011;3694;48.732;9.248;2023-08-12T04:10:08;4.97;;;4.50;;
7306;SDS011;3694;48.732;9.248;2023-08-12T04:12:34;4.90;;;4.40;;
7306;SDS011;3694;48.732;9.248;2023-08-12T04:15:00;5.23;;;4.60;;
7306;SDS011;3694;48.732;9.248;2023-08-12T04:17:29;4.77;;;4.27;;
7306;SDS011;3694;48.732;9.248;2023-08-12T04:19:54;5.20;;;4.33;;
7306;SDS011;3694;48.732;9.248;2023-08-12T04:22:20;5.00;;;4.30;;
7306;SDS011;3694;48.732;9.248;2023-08-12T04:24:46;5.83;;;5.20;;
7306;SDS011;3694;48.732;9.248;2023-08-12T04:27:11;4.47;;;4.07;;
7306;SDS011;3694;48.732;9.248;2023-08-12T04:29:37;4.83;;;4.40;;
7306;SDS011;3694;48.732;9.248;2023-08-12T04:32:02;5.57;;;4.23;;
7306;SDS011;3694;48.732;9.248;2023-08-12T04:34:28;4.90;;;4.50;;
7306;SDS011;3694;48.732;9.248;2023-08-12T04:36:53;4.60;;;4.20;;
7306;SDS011;3694;48.732;9.248;2023-08-12T04:39:19;4.37;;;3.97;;
7306;SDS011;3694;48.732;9.248;2023-08-12T04:41:45;4.87;;;4.47;;
7306;SDS011;3694;48.732;9.248;2023-08-12T04:44:10;4.37;;;3.97;;
7306;SDS011;3694;48.732;9.248;2023-08-12T04:46:36;4.57;;;4.17;;
7306;SDS011;3694;48.732;9.248;2023-08-12T04:49:01;5.57;;;4.57;;
7306;SDS011;3694;48.732;9.248;2023-08-12T04:51:27;4.57;;;4.17;;
7306;SDS011;3694;48.732;9.248;2023-08-12T04:53:53;3.93;;;3.60;;
7306;SDS011;3694;48.732;9.248;2023-08-12T04:56:18;5.23;;;4.10;;
7306;SDS011;3694;48.732;9.248;2023-08-12T04:58:44;4.37;;;3.97;;
7306;SDS011;3694;48.732;9.248;2023-08-12T05:01:09;4.40;;;4.00;;
7306;SDS011;3694;48.732;9.248;2023-08-12T05:03:35;4.30;;;4.00;;
7306;SDS011;3694;48.732;9.248;2023-08-12T05:06:00;4.63;;;4.17;;
7306;SDS011;3694;48.732;9.248;2023-08-12T05:08:26;4.40;;;4.00;;
7306;SDS011;3694;48.732;9.248;2023-08-12T05:10:51;4.20;;;3.80;;
7306;SDS011;3694;48.732;9.248;2023-08-12T05:13:17;4.47;;;4.07;;
7306;SDS011;3694;48.732;9.248;2023-08-12T05:15:46;4.03;;;3.63;;
7306;SDS011;3694;48.732;9.248;2023-08-12T05:18:12;4.23;;;3.83;;
7306;SDS011;3694;48.732;9.248;2023-08-12T05:20:39;4.70;;;4.23;;
7306;SDS011;3694;48.732;9.248;2023-08-12T05:23:06;4.10;;;3.80;;
7306;SDS011;3694;48.732;9.248;2023-08-12T05:25:31;4.80;;;4.37;;
7306;SDS011;3694;48.732;9.248;2023-08-12T05:27:57;4.53;;;4.13;;
7306;SDS011;3694;48.732;9.248;2023-08-12T05:30:22;4.33;;;3.90;;
7306;SDS011;3694;48.732;9.248;2023-08-12T05:32:48;3.97;;;3.67;;
7306;SDS011;3694;48.732;9.248;2023-08-12T05:35:13;3.90;;;3.60;;
7306;SDS011;3694;48.732;9.248;2023-08-12T05:37:39;3.90;;;3.60;;
7306;SDS011;3694;48.732;9.248;2023-08-12T05:40:05;5.03;;;4.03;;
7306;SDS011;3694;48.732;9.248;2023-08-12T05:42:33;5.43;;;4.03;;
7306;SDS011;3694;48.732;9.248;2023-08-12T05:44:59;4.47;;;3.57;;
7306;SDS011;3694;48.732;9.248;2023-08-12T05:47:25;4.50;;;4.00;;
7306;SDS011;3694;48.732;9.248;2023-08-12T05:49:50;3.80;;;3.50;;
7306;SDS011;3694;48.732;9.248;2023-08-12T05:52:16;4.63;;;3.70;;
7306;SDS011;3694;48.732;9.248;2023-08-12T05:54:41;3.90;;;3.50;;
7306;SDS011;3694;48.732;9.248;2023-08-12T05:57:07;3.70;;;3.40;;
7306;SDS011;3694;48.732;9.248;2023-08-12T05:59:32;4.20;;;3.80;;
7306;SDS011;3694;48.732;9.248;2023-08-12T06:01:58;4.30;;;3.90;;
7306;SDS011;3694;48.732;9.248;2023-08-12T06:04:23;5.03;;;3.60;;
7306;SDS011;3694;48.732;9.248;2023-08-12T06:06:49;4.27;;;3.83;;
7306;SDS011;3694;48.732;9.248;2023-08-12T06:09:15;3.93;;;3.63;;
7306;SDS011;3694;48.732;9.248;2023-08-12T06:11:41;4.10;;;3.73;;
7306;SDS011;3694;48.732;9.248;2023-08-12T06:14:06;3.93;;;3.53;;
7306;SDS011;3694;48.732;9.248;2023-08-12T06:16:32;4.20;;;3.80;;
7306;SDS011;3694;48.732;9.248;2023-08-12T06:18:58;3.93;;;3.63;;
7306;SDS011;3694;48.732;9.248;2023-08-12T06:21:23;3.80;;;3.50;;
7306;SDS011;3694;48.732;9.248;2023-08-12T06:23:49;4.30;;;3.90;;
7306;SDS011;3694;48.732;9.248;2023-08-12T06:26:14;5.27;;;4.00;;
7306;SDS011;3694;48.732;9.248;2023-08-12T06:28:40;5.83;;;4.03;;
7306;SDS011;3694;48.732;9.248;2023-08-12T06:31:05;5.07;;;3.80;;
7306;SDS011;3694;48.732;9.248;2023-08-12T06:33:31;4.40;;;4.00;;
7306;SDS011;3694;48.732;9.248;2023-08-12T06:35:56;5.53;;;3.97;;
7306;SDS011;3694;48.732;9.248;2023-08-12T06:38:22;4.43;;;4.03;;
7306;SDS011;3694;48.732;9.248;2023-08-12T06:40:47;7.50;;;4.30;;
7306;SDS011;3694;48.732;9.248;2023-08-12T06:43:13;4.70;;;4.30;;
7306;SDS011;3694;48.732;9.248;2023-08-12T06:45:38;6.90;;;3.90;;
7306;SDS011;3694;48.732;9.248;2023-08-12T06:48:04;3.87;;;3.57;;
7306;SDS011;3694;48.732;9.248;2023-08-12T06:50:30;4.87;;;3.80;;
7306;SDS011;3694;48.732;9.248;2023-08-12T06:52:57;4.87;;;4.07;;
7306;SDS011;3694;48.732;9.248;2023-08-12T06:55:22;4.33;;;4.00;;
7306;SDS011;3694;48.732;9.248;2023-08-12T06:57:48;4.67;;;3.70;;
7306;SDS011;3694;48.732;9.248;2023-08-12T07:00:14;6.23;;;3.87;;
7306;SDS011;3694;48.732;9.248;2023-08-12T07:02:39;4.80;;;4.07;;
7306;SDS011;3694;48.732;9.248;2023-08-12T07:05:07;3.77;;;3.37;;
7306;SDS011;3694;48.732;9.248;2023-08-12T07:07:33;3.72;;;3.25;;
7306;SDS011;3694;48.732;9.248;2023-08-12T07:09:58;3.53;;;3.20;;
7306;SDS011;3694;48.732;9.248;2023-08-12T07:12:24;3.78;;;3.15;;
7306;SDS011;3694;48.732;9.248;2023-08-12T07:14:49;3.47;;;3.17;;
7306;SDS011;3694;48.732;9.248;2023-08-12T07:17:15;2.85;;;2.65;;
7306;SDS011;3694;48.732;9.248;2023-08-12T07:19:41;3.75;;;3.35;;
7306;SDS011;3694;48.732;9.248;2023-08-12T07:22:06;3.33;;;3.03;;
7306;SDS011;3694;48.732;9.248;2023-08-12T07:24:32;3.08;;;2.88;;
7306;SDS011;3694;48.732;9.248;2023-08-12T07:26:58;3.83;;;3.03;;
7306;SDS011;3694;48.732;9.248;2023-08-12T07:29:23;4.05;;;2.95;;
7306;SDS011;3694;48.732;9.248;2023-08-12T07:31:49;2.88;;;2.60;;
7306;SDS011;3694;48.732;9.248;2023-08-12T07:34:14;3.33;;;2.70;;
7306;SDS011;3694;48.732;9.248;2023-08-12T07:36:40;3.00;;;2.80;;
7306;SDS011;3694;48.732;9.248;2023-08-12T07:39:06;3.30;;;2.97;;
7306;SDS011;3694;48.732;9.248;2023-08-12T07:41:32;3.50;;;3.20;;
7306;SDS011;3694;48.732;9.248;2023-08-12T07:43:58;3.22;;;2.92;;
7306;SDS011;3694;48.732;9.248;2023-08-12T07:46:23;2.92;;;2.70;;
7306;SDS011;3694;48.732;9.248;2023-08-12T07:48:49;3.60;;;3.22;;
7306;SDS011;3694;48.732;9.248;2023-08-12T07:51:14;3.20;;;3.00;;
7306;SDS011;3694;48.732;9.248;2023-08-12T07:53:40;3.25;;;2.95;;
7306;SDS011;3694;48.732;9.248;2023-08-12T07:56:06;3.97;;;3.17;;
7306;SDS011;3694;48.732;9.248;2023-08-12T07:58:31;3.63;;;3.33;;
7306;SDS011;3694;48.732;9.248;2023-08-12T08:00:57;4.15;;;3.00;;
7306;SDS011;3694;48.732;9.248;2023-08-12T08:03:22;3.13;;;2.92;;
7306;SDS011;3694;48.732;9.248;2023-08-12T08:05:48;3.20;;;3.00;;
7306;SDS011;3694;48.732;9.248;2023-08-12T08:08:13;3.25;;;2.95;;
7306;SDS011;3694;48.732;9.248;2023-08-12T08:10:39;3.25;;;2.95;;
7306;SDS011;3694;48.732;9.248;2023-08-12T08:13:05;4.88;;;3.17;;
7306;SDS011;3694;48.732;9.248;2023-08-12T08:15:31;3.05;;;2.75;;
7306;SDS011;3694;48.732;9.248;2023-08-12T08:17:56;3.55;;;3.08;;
7306;SDS011;3694;48.732;9.248;2023-08-12T08:20:22;2.90;;;2.70;;
7306;SDS011;3694;48.732;9.248;2023-08-12T08:22:48;3.40;;;2.70;;
7306;SDS011;3694;48.732;9.248;2023-08-12T08:25:13;2.75;;;2.55;;
7306;SDS011;3694;48.732;9.248;2023-08-12T08:27:39;2.83;;;2.63;;
7306;SDS011;3694;48.732;9.248;2023-08-12T08:30:05;2.80;;;2.60;;
7306;SDS011;3694;48.732;9.248;2023-08-12T08:32:31;4.18;;;2.83;;
7306;SDS011;3694;48.732;9.248;2023-08-12T08:34:57;2.90;;;2.70;;
7306;SDS011;3694;48.732;9.248;2023-08-12T08:37:23;2.53;;;2.33;;
7306;SDS011;3694;48.732;9.248;2023-08-12T08:39:48;3.25;;;2.80;;
7306;SDS011;3694;48.732;9.248;2023-08-12T08:42:14;4.57;;;2.80;;
7306;SDS011;3694;48.732;9.248;2023-08-12T08:44:41;2.80;;;2.58;;
7306;SDS011;3694;48.732;9.248;2023-08-12T08:47:08;3.55;;;2.70;;
7306;SDS011;3694;48.732;9.248;2023-08-12T08:49:34;2.40;;;2.22;;
7306;SDS011;3694;48.732;9.248;2023-08-12T08:52:01;3.83;;;2.67;;
7306;SDS011;3694;48.732;9.248;2023-08-12T08:54:27;2.97;;;2.60;;
7306;SDS011;3694;48.732;9.248;2023-08-12T08:56:53;2.75;;;2.50;;
7306;SDS011;3694;48.732;9.248;2023-08-12T08:59:19;2.90;;;2.70;;
7306;SDS011;3694;48.732;9.248;2023-08-12T09:01:46;2.85;;;2.58;;
7306;SDS011;3694;48.732;9.248;2023-08-12T09:04:16;2.95;;;2.67;;
7306;SDS011;3694;48.732;9.248;2023-08-12T09:06:42;3.45;;;3.15;;
7306;SDS011;3694;48.732;9.248;2023-08-12T09:09:10;2.90;;;2.70;;
7306;SDS011;3694;48.732;9.248;2023-08-12T09:11:38;2.70;;;2.50;;
7306;SDS011;3694;48.732;9.248;2023-08-12T09:14:05;2.97;;;2.78;;
7306;SDS011;3694;48.732;9.248;2023-08-12T09:16:31;2.67;;;2.42;;
7306;SDS011;3694;48.732;9.248;2023-08-12T09:18:57;3.10;;;2.72;;
7306;SDS011;3694;48.732;9.248;2023-08-12T09:21:23;6.63;;;2.70;;
7306;SDS011;3694;48.732;9.248;2023-08-12T09:23:49;4.45;;;2.53;;
7306;SDS011;3694;48.732;9.248;2023-08-12T09:26:15;2.55;;;2.35;;
7306;SDS011;3694;48.732;9.248;2023-08-12T09:28:42;2.42;;;2.22;;
7306;SDS011;3694;48.732;9.248;2023-08-12T09:31:09;2.97;;;2.65;;
7306;SDS011;3694;48.732;9.248;2023-08-12T09:33:49;2.55;;;2.15;;
7306;SDS011;3694;48.732;9.248;2023-08-12T09:36:15;2.28;;;2.05;;
7306;SDS011;3694;48.732;9.248;2023-08-12T09:38:41;2.75;;;2.28;;
7306;SDS011;3694;48.732;9.248;2023-08-12T09:41:07;2.72;;;2.05;;
7306;SDS011;3694;48.732;9.248;2023-08-12T09:43:33;2.22;;;2.03;;
7306;SDS011;3694;48.732;9.248;2023-08-12T09:45:58;2.20;;;2.10;;
7306;SDS011;3694;48.732;9.248;2023-08-12T09:48:25;3.53;;;2.35;;
7306;SDS011;3694;48.732;9.248;2023-08-12T09:50:52;1.80;;;1.65;;
7306;SDS011;3694;48.732;9.248;2023-08-12T09:53:18;2.08;;;1.75;;
7306;SDS011;3694;48.732;9.248;2023-08-12T09:55:45;2.47;;;1.50;;
7306;SDS011;3694;48.732;9.248;2023-08-12T09:58:14;1.60;;;1.50;;
7306;SDS011;3694;48.732;9.248;2023-08-12T10:00:43;2.63;;;2.10;;
7306;SDS011;3694;48.732;9.248;2023-08-12T10:03:10;3.53;;;1.88;;
7306;SDS011;3694;48.732;9.248;2023-08-12T10:05:39;1.73;;;1.60;;
7306;SDS011;3694;48.732;9.248;2023-08-12T10:08:06;1.90;;;1.80;;
7306;SDS011;3694;48.732;9.248;2023-08-12T10:10:34;2.20;;;2.00;;
7306;SDS011;3694;48.732;9.248;2023-08-12T10:13:01;2.10;;;1.90;;
7306;SDS011;3694;48.732;9.248;2023-08-12T10:15:27;2.35;;;2.15;;
7306;SDS011;3694;48.732;9.248;2023-08-12T10:17:53;2.55;;;2.13;;
7306;SDS011;3694;48.732;9.248;2023-08-12T10:20:21;2.05;;;1.95;;
7306;SDS011;3694;48.732;9.248;2023-08-12T10:22:51;1.88;;;1.77;;
7306;SDS011;3694;48.732;9.248;2023-08-12T10:25:19;2.90;;;1.95;;
7306;SDS011;3694;48.732;9.248;2023-08-12T10:27:48;1.85;;;1.73;;
7306;SDS011;3694;48.732;9.248;2023-08-12T10:30:14;2.40;;;2.17;;
7306;SDS011;3694;48.732;9.248;2023-08-12T10:32:40;2.10;;;1.70;;
7306;SDS011;3694;48.732;9.248;2023-08-12T10:35:07;1.90;;;1.80;;
7306;SDS011;3694;48.732;9.248;2023-08-12T10:37:33;2.17;;;2.03;;
7306;SDS011;3694;48.732;9.248;2023-08-12T10:40:03;2.88;;;2.40;;
7306;SDS011;3694;48.732;9.248;2023-08-12T10:42:46;2.15;;;2.05;;
7306;SDS011;3694;48.732;9.248;2023-08-12T10:45:16;2.50;;;2.30;;
7306;SDS011;3694;48.732;9.248;2023-08-12T10:50:34;2.38;;;2.17;;
7306;SDS011;3694;48.732;9.248;2023-08-12T10:53:01;1.77;;;1.67;;
7306;SDS011;3694;48.732;9.248;2023-08-12T10:56:01;1.90;;;1.80;;
7306;SDS011;3694;48.732;9.248;2023-08-12T11:01:10;2.47;;;2.08;;
7306;SDS011;3694;48.732;9.248;2023-08-12T11:03:45;1.98;;;1.88;;
7306;SDS011;3694;48.732;9.248;2023-08-12T11:06:11;2.22;;;2.03;;
7306;SDS011;3694;48.732;9.248;2023-08-12T11:08:45;2.17;;;2.00;;
7306;SDS011;3694;48.732;9.248;2023-08-12T11:11:24;2.10;;;2.00;;
7306;SDS011;3694;48.732;9.248;2023-08-12T11:13:53;3.15;;;2.38;;
7306;SDS011;3694;48.732;9.248;2023-08-12T11:16:35;2.05;;;1.95;;
7306;SDS011;3694;48.732;9.248;2023-08-12T11:19:02;3.25;;;2.05;;
7306;SDS011;3694;48.732;9.248;2023-08-12T11:21:28;1.83;;;1.73;;
7306;SDS011;3694;48.732;9.248;2023-08-12T11:23:54;2.22;;;2.03;;
7306;SDS011;3694;48.732;9.248;2023-08-12T11:26:21;2.03;;;1.92;;
7306;SDS011;3694;48.732;9.248;2023-08-12T11:28:48;2.00;;;1.75;;
7306;SDS011;3694;48.732;9.248;2023-08-12T11:31:14;3.55;;;2.40;;
7306;SDS011;3694;48.732;9.248;2023-08-12T11:33:40;2.53;;;2.33;;
7306;SDS011;3694;48.732;9.248;2023-08-12T11:36:07;2.35;;;2.15;;
7306;SDS011;3694;48.732;9.248;2023-08-12T11:38:32;2.05;;;1.95;;
7306;SDS011;3694;48.732;9.248;2023-08-12T11:41:00;2.15;;;1.95;;
7306;SDS011;3694;48.732;9.248;2023-08-12T11:43:27;5.00;;;2.28;;
7306;SDS011;3694;48.732;9.248;2023-08-12T11:45:55;3.38;;;2.08;;
7306;SDS011;3694;48.732;9.248;2023-08-12T11:48:21;3.65;;;2.22;;
7306;SDS011;3694;48.732;9.248;2023-08-12T11:50:48;2.13;;;2.03;;
7306;SDS011;3694;48.732;9.248;2023-08-12T11:53:13;3.53;;;2.28;;
7306;SDS011;3694;48.732;9.248;2023-08-12T11:55:39;3.10;;;2.38;;
7306;SDS011;3694;48.732;9.248;2023-08-12T11:58:05;2.33;;;2.00;;
7306;SDS011;3694;48.732;9.248;2023-08-12T12:00:30;2.00;;;1.90;;
7306;SDS011;3694;48.732;9.248;2023-08-12T12:02:57;2.33;;;2.13;;
7306;SDS011;3694;48.732;9.248;2023-08-12T12:05:27;4.75;;;2.00;;
7306;SDS011;3694;48.732;9.248;2023-08-12T12:07:54;2.22;;;1.73;;
7306;SDS011;3694;48.732;9.248;2023-08-12T12:10:20;2.42;;;1.60;;
7306;SDS011;3694;48.732;9.248;2023-08-12T12:12:56;3.58;;;1.90;;
7306;SDS011;3694;48.732;9.248;2023-08-12T12:15:22;1.95;;;1.50;;
7306;SDS011;3694;48.732;9.248;2023-08-12T12:17:51;1.77;;;1.63;;
7306;SDS011;3694;48.732;9.248;2023-08-12T12:20:18;4.80;;;1.75;;
7306;SDS011;3694;48.732;9.248;2023-08-12T12:22:44;2.42;;;1.63;;
7306;SDS011;3694;48.732;9.248;2023-08-12T12:25:11;2.25;;;1.98;;
7306;SDS011;3694;48.732;9.248;2023-08-12T12:27:38;2.65;;;2.42;;
7306;SDS011;3694;48.732;9.248;2023-08-12T12:30:07;2.75;;;2.55;;
7306;SDS011;3694;48.732;9.248;2023-08-12T12:32:37;3.60;;;3.30;;
7306;SDS011;3694;48.732;9.248;2023-08-12T12:35:03;3.53;;;3.13;;
7306;SDS011;3694;48.732;9.248;2023-08-12T12:37:32;3.63;;;3.00;;
7306;SDS011;3694;48.732;9.248;2023-08-12T12:39:57;4.40;;;3.40;;
7306;SDS011;3694;48.732;9.248;2023-08-12T12:42:23;3.77;;;3.23;;
7306;SDS011;3694;48.732;9.248;2023-08-12T12:44:48;3.50;;;3.20;;
7306;SDS011;3694;48.732;9.248;2023-08-12T12:47:14;3.63;;;3.33;;
7306;SDS011;3694;48.732;9.248;2023-08-12T12:49:39;4.03;;;3.50;;
7306;SDS011;3694;48.732;9.248;2023-08-12T12:52:06;4.17;;;3.77;;
7306;SDS011;3694;48.732;9.248;2023-08-12T12:54:32;4.40;;;4.00;;
7306;SDS011;3694;48.732;9.248;2023-08-12T12:56:57;4.30;;;3.57;;
7306;SDS011;3694;48.732;9.248;2023-08-12T12:59:23;6.40;;;4.40;;
7306;SDS011;3694;48.732;9.248;2023-08-12T13:01:48;6.47;;;4.27;;
7306;SDS011;3694;48.732;9.248;2023-08-12T13:04:14;4.37;;;3.57;;
7306;SDS011;3694;48.732;9.248;2023-08-12T13:06:40;5.40;;;4.37;;
7306;SDS011;3694;48.732;9.248;2023-08-12T13:09:05;4.60;;;4.20;;
7306;SDS011;3694;48.732;9.248;2023-08-12T13:11:31;5.47;;;4.97;;
7306;SDS011;3694;48.732;9.248;2023-08-12T13:14:02;5.33;;;4.77;;
7306;SDS011;3694;48.732;9.248;2023-08-12T13:16:28;4.93;;;4.23;;
7306;SDS011;3694;48.732;9.248;2023-08-12T13:18:54;4.90;;;4.43;;
7306;SDS011;3694;48.732;9.248;2023-08-12T13:21:20;5.80;;;4.83;;
7306;SDS011;3694;48.732;9.248;2023-08-12T13:23:45;5.47;;;4.70;;
7306;SDS011;3694;48.732;9.248;2023-08-12T13:26:11;6.17;;;4.43;;
7306;SDS011;3694;48.732;9.248;2023-08-12T13:28:36;5.50;;;4.90;;
7306;SDS011;3694;48.732;9.248;2023-08-12T13:31:02;4.90;;;4.50;;
7306;SDS011;3694;48.732;9.248;2023-08-12T13:33:27;4.47;;;4.00;;
7306;SDS011;3694;48.732;9.248;2023-08-12T13:35:53;4.50;;;4.10;;
7306;SDS011;3694;48.732;9.248;2023-08-12T13:38:19;6.60;;;5.07;;
7306;SDS011;3694;48.732;9.248;2023-08-12T13:40:44;5.17;;;4.63;;
7306;SDS011;3694;48.732;9.248;2023-08-12T13:43:10;5.33;;;4.10;;
7306;SDS011;3694;48.732;9.248;2023-08-12T13:45:35;5.53;;;3.60;;
7306;SDS011;3694;48.732;9.248;2023-08-12T13:48:01;3.57;;;3.23;;
7306;SDS011;3694;48.732;9.248;2023-08-12T13:50:27;3.10;;;2.80;;
7306;SDS011;3694;48.732;9.248;2023-08-12T13:52:52;2.87;;;2.60;;
7306;SDS011;3694;48.732;9.248;2023-08-12T13:55:18;6.30;;;2.60;;
7306;SDS011;3694;48.732;9.248;2023-08-12T13:57:44;2.93;;;2.50;;
7306;SDS011;3694;48.732;9.248;2023-08-12T14:00:09;6.33;;;2.70;;
7306;SDS011;3694;48.732;9.248;2023-08-12T14:02:36;3.63;;;2.47;;
7306;SDS011;3694;48.732;9.248;2023-08-12T14:05:02;2.23;;;2.03;;
7306;SDS011;3694;48.732;9.248;2023-08-12T14:07:28;2.75;;;2.03;;
7306;SDS011;3694;48.732;9.248;2023-08-12T14:09:55;4.38;;;2.15;;
7306;SDS011;3694;48.732;9.248;2023-08-12T14:12:20;1.90;;;1.70;;
7306;SDS011;3694;48.732;9.248;2023-08-12T14:14:46;2.20;;;2.00;;
7306;SDS011;3694;48.732;9.248;2023-08-12T14:17:11;2.55;;;2.35;;
7306;SDS011;3694;48.732;9.248;2023-08-12T14:19:39;1.60;;;1.50;;
7306;SDS011;3694;48.732;9.248;2023-08-12T14:22:07;3.33;;;1.90;;
7306;SDS011;3694;48.732;9.248;2023-08-12T14:24:33;2.88;;;2.08;;
7306;SDS011;3694;48.732;9.248;2023-08-12T14:26:58;2.10;;;1.70;;
7306;SDS011;3694;48.732;9.248;2023-08-12T14:29:24;2.50;;;1.90;;
7306;SDS011;3694;48.732;9.248;2023-08-12T14:31:50;2.65;;;2.00;;
7306;SDS011;3694;48.732;9.248;2023-08-12T14:34:16;2.00;;;1.80;;
7306;SDS011;3694;48.732;9.248;2023-08-12T14:36:41;2.13;;;1.50;;
7306;SDS011;3694;48.732;9.248;2023-08-12T14:39:07;2.38;;;1.60;;
7306;SDS011;3694;48.732;9.248;2023-08-12T14:41:32;1.40;;;1.30;;
7306;SDS011;3694;48.732;9.248;2023-08-12T14:43:58;1.90;;;1.48;;
7306;SDS011;3694;48.732;9.248;2023-08-12T14:46:24;1.73;;;1.63;;
7306;SDS011;3694;48.732;9.248;2023-08-12T14:48:49;1.67;;;1.30;;
7306;SDS011;3694;48.732;9.248;2023-08-12T14:51:15;1.65;;;1.42;;
7306;SDS011;3694;48.732;9.248;2023-08-12T14:53:41;2.65;;;1.52;;
7306;SDS011;3694;48.732;9.248;2023-08-12T14:56:07;1.70;;;1.40;;
7306;SDS011;3694;48.732;9.248;2023-08-12T14:58:32;2.42;;;1.60;;
7306;SDS011;3694;48.732;9.248;2023-08-12T15:00:58;1.48;;;1.33;;
7306;SDS011;3694;48.732;9.248;2023-08-12T15:03:25;1.20;;;1.10;;
7306;SDS011;3694;48.732;9.248;2023-08-12T15:05:58;1.48;;;1.38;;
7306;SDS011;3694;48.732;9.248;2023-08-12T15:08:25;2.17;;;1.20;;
7306;SDS011;3694;48.732;9.248;2023-08-12T15:10:50;1.10;;;0.95;;
7306;SDS011;3694;48.732;9.248;2023-08-12T15:13:16;1.75;;;1.40;;
7306;SDS011;3694;48.732;9.248;2023-08-12T15:15:44;1.70;;;1.38;;
7306;SDS011;3694;48.732;9.248;2023-08-12T15:18:11;1.27;;;1.17;;
7306;SDS011;3694;48.732;9.248;2023-08-12T15:20:37;1.48;;;1.38;;
7306;SDS011;3694;48.732;9.248;2023-08-12T15:23:02;2.67;;;1.40;;
7306;SDS011;3694;48.732;9.248;2023-08-12T15:25:28;1.40;;;1.30;;
7306;SDS011;3694;48.732;9.248;2023-08-12T15:27:54;1.35;;;1.20;;